createdAt,value
2019-03-20T00:00:38.330Z,2.65
2019-03-20T00:03:05.264Z,2.55
2019-03-20T00:05:32.224Z,2.54
2019-03-20T00:08:00.261Z,2.52
2019-03-20T00:10:27.242Z,2.52
2019-03-20T00:12:54.256Z,2.56
2019-03-20T00:15:21.218Z,2.49
2019-03-20T00:17:48.210Z,2.47
2019-03-20T00:20:15.122Z,2.49
2019-03-20T00:22:43.287Z,2.46
2019-03-20T00:25:10.642Z,2.43
2019-03-20T00:27:37.603Z,2.39
2019-03-20T00:30:04.783Z,2.29
2019-03-20T00:32:31.807Z,2.24
2019-03-20T00:35:01.245Z,2.28
2019-03-20T00:37:27.839Z,2.28
2019-03-20T00:39:54.786Z,2.39
2019-03-20T00:42:21.762Z,2.36
2019-03-20T00:44:48.664Z,2.20
2019-03-20T00:47:15.598Z,2.21
2019-03-20T00:49:42.564Z,2.12
2019-03-20T00:52:11.689Z,2.18
2019-03-20T00:54:38.686Z,2.10
2019-03-20T00:57:05.659Z,2.15
2019-03-20T00:59:32.649Z,2.10
2019-03-20T01:01:59.553Z,2.00
2019-03-20T01:04:26.521Z,2.13
2019-03-20T01:06:53.466Z,2.02
2019-03-20T01:09:20.425Z,1.96
2019-03-20T01:11:47.352Z,1.95
2019-03-20T01:14:14.293Z,1.94
2019-03-20T01:16:41.205Z,1.92
2019-03-20T01:19:08.215Z,1.84
2019-03-20T01:21:35.153Z,1.74
2019-03-20T01:24:02.113Z,1.65
2019-03-20T01:26:29.063Z,1.71
2019-03-20T01:28:56.068Z,1.67
2019-03-20T01:31:22.995Z,1.68
2019-03-20T01:33:49.951Z,1.68
2019-03-20T01:36:16.897Z,1.81
2019-03-20T01:38:43.862Z,1.76
2019-03-20T01:41:10.842Z,1.74
2019-03-20T01:43:37.838Z,1.70
2019-03-20T01:46:04.781Z,1.67
2019-03-20T01:48:31.783Z,1.65
2019-03-20T01:51:19.134Z,1.67
2019-03-20T01:53:46.102Z,1.70
2019-03-20T01:56:13.189Z,1.64
2019-03-20T01:58:40.174Z,1.62
2019-03-20T02:03:35.667Z,1.53
2019-03-20T02:06:02.571Z,1.34
2019-03-20T02:08:29.526Z,1.47
2019-03-20T02:10:56.466Z,1.60
2019-03-20T02:13:23.436Z,1.54
2019-03-20T02:15:50.366Z,1.63
2019-03-20T02:18:17.325Z,1.63
2019-03-20T02:20:44.284Z,1.53
2019-03-20T02:23:11.220Z,1.41
2019-03-20T02:25:38.183Z,1.44
2019-03-20T02:28:05.995Z,1.43
2019-03-20T02:30:32.952Z,1.42
2019-03-20T02:32:59.884Z,1.43
2019-03-20T02:35:26.827Z,1.50
2019-03-20T02:37:53.758Z,1.48
2019-03-20T02:40:20.722Z,1.60
2019-03-20T02:42:47.651Z,1.54
2019-03-20T02:45:15.243Z,1.50
2019-03-20T02:47:42.212Z,1.44
2019-03-20T02:50:09.540Z,1.46
2019-03-20T02:52:36.576Z,1.49
2019-03-20T02:55:04.653Z,1.54
2019-03-20T02:57:31.580Z,1.53
2019-03-20T02:59:58.529Z,1.44
2019-03-20T03:02:25.471Z,1.37
2019-03-20T03:04:52.460Z,1.35
2019-03-20T03:07:19.376Z,1.32
2019-03-20T03:09:46.338Z,1.41
2019-03-20T03:12:13.283Z,1.45
2019-03-20T03:14:40.233Z,1.44
2019-03-20T03:17:07.176Z,1.41
2019-03-20T03:19:34.164Z,1.42
2019-03-20T03:22:01.195Z,1.34
2019-03-20T03:24:28.157Z,1.28
2019-03-20T03:26:55.102Z,1.20
2019-03-20T03:29:22.079Z,1.23
2019-03-20T03:31:49.006Z,1.17
2019-03-20T03:34:15.985Z,1.13
2019-03-20T03:36:42.984Z,1.12
2019-03-20T03:39:09.967Z,1.17
2019-03-20T03:41:37.428Z,1.10
2019-03-20T03:44:04.347Z,1.14
2019-03-20T03:46:31.317Z,1.12
2019-03-20T03:48:58.235Z,1.15
2019-03-20T03:51:25.201Z,1.14
2019-03-20T03:53:52.124Z,1.09
2019-03-20T03:56:19.112Z,1.09
2019-03-20T03:58:46.032Z,1.13
2019-03-20T04:01:13.212Z,1.07
2019-03-20T04:03:40.148Z,1.13
2019-03-20T04:06:07.187Z,1.20
2019-03-20T04:08:34.107Z,1.13
2019-03-20T04:11:01.078Z,1.14
2019-03-20T04:13:28.023Z,1.11
2019-03-20T04:15:55.078Z,1.10
2019-03-20T04:18:22.003Z,0.93
2019-03-20T04:20:48.949Z,0.88
2019-03-20T04:23:15.939Z,0.77
2019-03-20T04:25:42.910Z,0.86
2019-03-20T04:28:09.830Z,0.93
2019-03-20T04:30:36.787Z,0.89
2019-03-20T04:33:03.722Z,0.93
2019-03-20T04:35:30.717Z,0.96
2019-03-20T04:37:57.696Z,1.02
2019-03-20T04:40:24.681Z,0.98
2019-03-20T04:42:51.633Z,1.03
2019-03-20T04:45:18.604Z,1.03
2019-03-20T04:47:45.526Z,0.99
2019-03-20T04:50:12.695Z,1.02
2019-03-20T04:52:39.620Z,0.92
2019-03-20T04:55:06.693Z,0.92
2019-03-20T04:57:33.717Z,0.94
2019-03-20T05:00:00.642Z,1.07
2019-03-20T05:02:27.631Z,0.94
2019-03-20T05:04:54.561Z,1.04
2019-03-20T05:07:21.520Z,0.96
2019-03-20T05:09:48.433Z,0.79
2019-03-20T05:12:15.428Z,0.90
2019-03-20T05:14:42.357Z,0.94
2019-03-20T05:17:09.297Z,1.00
2019-03-20T05:19:36.218Z,1.01
2019-03-20T05:22:03.200Z,0.91
2019-03-20T05:24:30.121Z,0.89
2019-03-20T05:26:57.147Z,0.94
2019-03-20T05:29:24.068Z,0.98
2019-03-20T05:31:51.063Z,0.98
2019-03-20T05:34:18.666Z,0.87
2019-03-20T05:36:45.652Z,0.84
2019-03-20T05:39:12.555Z,0.77
2019-03-20T05:41:39.528Z,0.83
2019-03-20T05:44:06.476Z,0.80
2019-03-20T05:46:33.433Z,0.84
2019-03-20T05:49:00.440Z,0.81
2019-03-20T05:51:27.412Z,0.91
2019-03-20T05:53:54.342Z,0.90
2019-03-20T05:56:21.367Z,0.96
2019-03-20T05:58:48.301Z,0.95
2019-03-20T06:01:15.260Z,0.87
2019-03-20T06:03:42.204Z,0.84
2019-03-20T06:06:09.187Z,0.93
2019-03-20T06:08:36.096Z,0.80
2019-03-20T06:11:03.047Z,0.85
2019-03-20T06:13:30.007Z,0.84
2019-03-20T06:15:56.967Z,0.85
2019-03-20T06:18:23.895Z,1.11
2019-03-20T06:20:50.814Z,1.02
2019-03-20T06:23:17.775Z,1.01
2019-03-20T06:25:44.987Z,1.17
2019-03-20T06:28:11.943Z,1.15
2019-03-20T06:30:38.866Z,1.20
2019-03-20T06:33:05.958Z,1.29
2019-03-20T06:35:32.892Z,1.58
2019-03-20T06:37:59.850Z,1.65
2019-03-20T06:40:26.783Z,1.77
2019-03-20T06:42:55.354Z,1.95
2019-03-20T06:45:22.495Z,1.81
2019-03-20T06:47:49.444Z,1.91
2019-03-20T06:50:16.447Z,1.95
2019-03-20T06:52:43.464Z,1.91
2019-03-20T06:55:10.476Z,2.10
2019-03-20T06:57:37.482Z,2.21
2019-03-20T07:00:50.861Z,2.44
2019-03-20T07:03:27.823Z,2.68
2019-03-20T07:06:31.476Z,2.61
2019-03-20T07:09:08.376Z,2.62
2019-03-20T07:11:38.395Z,2.78
2019-03-20T07:14:05.400Z,2.75
2019-03-20T07:16:37.764Z,2.80
2019-03-20T07:19:21.673Z,3.28
2019-03-20T07:21:49.003Z,3.26
2019-03-20T07:24:15.989Z,3.19
2019-03-20T07:26:42.913Z,3.34
2019-03-20T07:29:10.136Z,3.55
2019-03-20T07:31:37.097Z,3.50
2019-03-20T07:34:04.062Z,3.60
2019-03-20T07:36:31.037Z,3.52
2019-03-20T07:38:58.009Z,3.69
2019-03-20T07:41:24.944Z,3.94
2019-03-20T07:43:51.903Z,4.13
2019-03-20T07:46:18.860Z,4.43
2019-03-20T07:48:45.823Z,4.57
2019-03-20T07:51:12.797Z,4.86
2019-03-20T07:53:39.810Z,5.06
2019-03-20T07:56:06.792Z,5.19
2019-03-20T07:58:33.750Z,5.41
2019-03-20T08:01:00.685Z,5.26
2019-03-20T08:03:27.649Z,5.53
2019-03-20T08:05:54.607Z,5.74
2019-03-20T08:08:21.556Z,5.55
2019-03-20T08:10:48.572Z,5.51
2019-03-20T08:13:15.560Z,5.79
2019-03-20T08:15:42.494Z,6.14
2019-03-20T08:18:09.476Z,6.21
2019-03-20T08:20:36.406Z,6.25
2019-03-20T08:23:03.491Z,6.41
2019-03-20T08:25:30.504Z,6.32
2019-03-20T08:27:57.453Z,6.39
2019-03-20T08:30:24.385Z,6.45
2019-03-20T08:32:51.350Z,6.47
2019-03-20T08:35:18.290Z,6.70
2019-03-20T08:37:45.274Z,6.87
2019-03-20T08:40:12.328Z,7.15
2019-03-20T08:42:39.261Z,7.48
2019-03-20T08:45:07.041Z,7.63
2019-03-20T08:47:33.992Z,7.79
2019-03-20T08:50:00.960Z,7.90
2019-03-20T08:52:27.922Z,8.16
2019-03-20T08:54:54.914Z,8.33
2019-03-20T08:57:21.866Z,8.54
2019-03-20T08:59:48.903Z,8.56
2019-03-20T09:02:15.801Z,8.57
2019-03-20T09:04:42.774Z,8.62
2019-03-20T09:07:09.719Z,8.72
2019-03-20T09:09:36.687Z,8.92
2019-03-20T09:12:03.621Z,9.00
2019-03-20T09:14:30.601Z,9.01
2019-03-20T09:16:57.564Z,9.21
2019-03-20T09:19:24.532Z,9.42
2019-03-20T09:21:51.449Z,9.82
2019-03-20T09:24:18.496Z,9.66
2019-03-20T09:26:45.431Z,9.67
2019-03-20T09:29:18.461Z,9.76
2019-03-20T09:31:41.261Z,10.08
2019-03-20T09:34:08.233Z,9.92
2019-03-20T09:36:43.162Z,9.93
2019-03-20T09:39:06.581Z,10.00
2019-03-20T09:41:33.520Z,10.12
2019-03-20T09:44:00.511Z,10.24
2019-03-20T09:46:27.445Z,10.34
2019-03-20T09:48:54.413Z,10.43
2019-03-20T09:51:21.532Z,10.51
2019-03-20T09:53:48.483Z,10.71
2019-03-20T09:56:15.426Z,10.97
2019-03-20T09:58:42.404Z,11.02
2019-03-20T10:01:09.342Z,10.99
2019-03-20T10:03:37.015Z,11.05
2019-03-20T10:06:04.000Z,11.13
2019-03-20T10:08:30.971Z,11.25
2019-03-20T10:10:57.899Z,11.41
2019-03-20T10:13:24.966Z,11.53
2019-03-20T10:15:51.928Z,11.41
2019-03-20T10:18:18.877Z,11.40
2019-03-20T10:20:45.839Z,11.70
2019-03-20T10:23:12.783Z,11.94
2019-03-20T10:25:44.495Z,11.91
2019-03-20T10:28:08.609Z,11.79
2019-03-20T10:30:35.586Z,11.76
2019-03-20T10:33:02.510Z,11.63
2019-03-20T10:35:29.476Z,11.97
2019-03-20T10:37:56.402Z,11.84
2019-03-20T10:40:23.368Z,11.97
2019-03-20T10:42:50.433Z,11.76
2019-03-20T10:45:17.505Z,11.95
2019-03-20T10:47:44.514Z,11.76
2019-03-20T10:50:13.434Z,11.93
2019-03-20T10:52:40.416Z,11.87
2019-03-20T10:55:07.423Z,11.79
2019-03-20T10:57:34.380Z,11.87
2019-03-20T11:00:01.376Z,11.83
2019-03-20T11:02:28.538Z,12.04
2019-03-20T11:04:55.511Z,12.12
2019-03-20T11:07:22.444Z,12.27
2019-03-20T11:09:49.420Z,12.20
2019-03-20T11:12:16.356Z,12.36
2019-03-20T11:14:45.572Z,12.28
2019-03-20T11:17:12.515Z,12.51
2019-03-20T11:19:39.482Z,12.56
2019-03-20T11:22:17.957Z,12.72
2019-03-20T11:24:35.406Z,12.95
2019-03-20T11:27:04.218Z,12.90
2019-03-20T11:29:31.240Z,12.89
2019-03-20T11:31:58.163Z,12.81
2019-03-20T11:34:25.212Z,12.80
2019-03-20T11:36:52.145Z,12.90
2019-03-20T11:39:29.245Z,13.19
2019-03-20T11:41:47.966Z,13.41
2019-03-20T11:44:14.900Z,13.47
2019-03-20T11:46:41.876Z,13.67
2019-03-20T11:49:08.833Z,13.22
2019-03-20T11:51:35.800Z,13.36
2019-03-20T11:54:02.711Z,13.21
2019-03-20T11:56:29.720Z,13.14
2019-03-20T11:58:56.664Z,13.20
2019-03-20T12:01:23.617Z,13.26
2019-03-20T12:03:50.541Z,13.03
2019-03-20T12:06:17.512Z,13.09
2019-03-20T12:08:44.452Z,13.19
2019-03-20T12:11:11.423Z,13.35
2019-03-20T12:13:38.353Z,13.40
2019-03-20T12:16:05.314Z,13.35
2019-03-20T12:18:32.237Z,13.45
2019-03-20T12:20:59.203Z,13.44
2019-03-20T12:23:26.162Z,13.40
2019-03-20T12:25:53.142Z,13.26
2019-03-20T12:28:20.088Z,13.36
2019-03-20T12:30:47.069Z,12.98
2019-03-20T12:33:13.992Z,13.11
2019-03-20T12:35:40.957Z,13.18
2019-03-20T12:38:14.192Z,13.03
2019-03-20T12:40:36.875Z,12.93
2019-03-20T12:43:04.576Z,12.90
2019-03-20T12:45:32.315Z,12.90
2019-03-20T12:47:59.233Z,12.76
2019-03-20T12:50:26.269Z,12.67
2019-03-20T12:52:53.255Z,12.68
2019-03-20T12:55:21.877Z,12.76
2019-03-20T12:57:51.707Z,12.72
2019-03-20T13:00:19.737Z,12.70
2019-03-20T13:02:46.935Z,12.63
2019-03-20T13:05:14.550Z,12.75
2019-03-20T13:07:41.517Z,12.74
2019-03-20T13:10:09.987Z,12.86
2019-03-20T13:12:36.974Z,13.06
2019-03-20T13:15:04.898Z,12.93
2019-03-20T13:17:31.847Z,13.03
2019-03-20T13:19:58.772Z,12.92
2019-03-20T13:22:25.724Z,12.88
2019-03-20T13:24:52.692Z,13.06
2019-03-20T13:27:19.665Z,13.07
2019-03-20T13:29:46.615Z,12.95
2019-03-20T13:32:13.618Z,12.99
2019-03-20T13:34:40.544Z,13.10
2019-03-20T13:37:07.508Z,12.97
2019-03-20T13:39:34.438Z,12.72
2019-03-20T13:42:01.400Z,12.95
2019-03-20T13:44:28.328Z,12.91
2019-03-20T13:46:55.311Z,12.99
2019-03-20T13:49:22.246Z,12.94
2019-03-20T13:51:49.222Z,12.99
2019-03-20T13:54:16.150Z,12.98
2019-03-20T13:56:43.177Z,13.00
2019-03-20T13:59:10.148Z,12.96
2019-03-20T14:01:37.090Z,13.00
2019-03-20T14:04:04.072Z,12.95
2019-03-20T14:06:30.995Z,12.86
2019-03-20T14:08:58.000Z,12.93
2019-03-20T14:11:24.927Z,12.89
2019-03-20T14:13:51.883Z,12.72
2019-03-20T14:16:19.014Z,12.74
2019-03-20T14:18:46.014Z,12.76
2019-03-20T14:21:12.957Z,12.86
2019-03-20T14:23:40.093Z,12.69
2019-03-20T14:26:07.025Z,12.84
2019-03-20T14:28:33.995Z,13.05
2019-03-20T14:31:00.932Z,12.85
2019-03-20T14:33:27.934Z,12.85
2019-03-20T14:35:54.870Z,12.87
2019-03-20T14:38:21.834Z,12.87
2019-03-20T14:40:48.769Z,12.77
2019-03-20T14:43:15.799Z,12.85
2019-03-20T14:45:42.804Z,12.66
2019-03-20T14:48:09.778Z,12.68
2019-03-20T14:50:36.854Z,12.59
2019-03-20T14:53:03.836Z,12.56
2019-03-20T14:55:31.902Z,12.53
2019-03-20T14:58:00.494Z,12.53
2019-03-20T15:00:28.112Z,12.50
2019-03-20T15:02:55.272Z,12.47
2019-03-20T15:05:22.406Z,12.54
2019-03-20T15:07:49.457Z,12.47
2019-03-20T15:10:17.851Z,12.37
2019-03-20T15:12:44.951Z,12.35
2019-03-20T15:15:27.088Z,12.42
2019-03-20T15:17:54.020Z,12.23
2019-03-20T15:20:20.986Z,12.14
2019-03-20T15:22:47.942Z,12.26
2019-03-20T15:25:15.098Z,12.25
2019-03-20T15:27:42.024Z,12.29
2019-03-20T15:30:11.119Z,12.19
2019-03-20T15:32:38.047Z,12.16
2019-03-20T15:35:05.984Z,12.12
2019-03-20T15:37:32.932Z,12.13
2019-03-20T15:39:59.922Z,12.31
2019-03-20T15:42:26.875Z,12.26
2019-03-20T15:44:53.893Z,12.18
2019-03-20T15:47:20.841Z,12.22
2019-03-20T15:49:47.824Z,12.15
2019-03-20T15:52:14.750Z,12.20
2019-03-20T15:54:41.701Z,12.18
2019-03-20T15:57:08.652Z,12.18
2019-03-20T15:59:35.636Z,12.08
2019-03-20T16:02:02.621Z,12.18
2019-03-20T16:04:29.592Z,12.05
2019-03-20T16:06:56.536Z,12.08
2019-03-20T16:09:23.505Z,12.09
2019-03-20T16:11:50.437Z,12.04
2019-03-20T16:14:17.400Z,12.04
2019-03-20T16:16:44.322Z,12.16
2019-03-20T16:19:11.293Z,12.21
2019-03-20T16:21:38.218Z,12.14
2019-03-20T16:24:05.334Z,12.17
2019-03-20T16:26:32.276Z,12.10
2019-03-20T16:28:59.259Z,12.05
2019-03-20T16:31:26.255Z,12.15
2019-03-20T16:33:53.322Z,11.97
2019-03-20T16:36:20.242Z,12.00
2019-03-20T16:38:47.188Z,12.19
2019-03-20T16:41:17.032Z,12.08
2019-03-20T16:43:43.067Z,12.20
2019-03-20T16:46:10.050Z,12.16
2019-03-20T16:48:36.982Z,12.18
2019-03-20T16:51:03.934Z,12.20
2019-03-20T16:53:30.859Z,12.25
2019-03-20T16:55:57.875Z,12.24
2019-03-20T16:58:24.910Z,12.12
2019-03-20T17:00:51.882Z,12.19
2019-03-20T17:03:18.808Z,12.04
2019-03-20T17:05:45.779Z,11.98
2019-03-20T17:08:12.768Z,11.91
2019-03-20T17:10:39.773Z,11.86
2019-03-20T17:13:06.767Z,11.81
2019-03-20T17:15:33.901Z,11.91
2019-03-20T17:18:01.038Z,11.80
2019-03-20T17:20:27.988Z,11.64
2019-03-20T17:22:55.627Z,11.58
2019-03-20T17:25:22.593Z,11.60
2019-03-20T17:27:49.509Z,11.65
2019-03-20T17:30:18.814Z,11.55
2019-03-20T17:32:45.771Z,11.44
2019-03-20T17:35:12.862Z,11.43
2019-03-20T17:37:39.913Z,11.45
2019-03-20T17:40:08.844Z,11.27
2019-03-20T17:42:35.796Z,11.22
2019-03-20T17:45:03.073Z,11.43
2019-03-20T17:47:30.003Z,11.27
2019-03-20T17:49:56.955Z,11.07
2019-03-20T17:52:23.905Z,10.93
2019-03-20T17:54:50.867Z,10.92
2019-03-20T17:57:17.817Z,10.79
2019-03-20T17:59:45.367Z,10.68
2019-03-20T18:02:12.352Z,10.63
2019-03-20T18:04:39.276Z,10.51
2019-03-20T18:07:06.223Z,10.50
2019-03-20T18:09:33.171Z,10.37
2019-03-20T18:12:00.151Z,10.35
2019-03-20T18:14:27.081Z,10.28
2019-03-20T18:16:54.054Z,10.25
2019-03-20T18:19:21.057Z,10.23
2019-03-20T18:21:48.052Z,10.17
2019-03-20T18:24:15.021Z,10.14
2019-03-20T18:26:42.066Z,10.06
2019-03-20T18:29:09.004Z,10.02
2019-03-20T18:31:45.505Z,10.00
2019-03-20T18:34:04.842Z,10.00
2019-03-20T18:36:31.801Z,10.00
2019-03-20T18:38:58.766Z,9.97
2019-03-20T18:41:25.880Z,9.90
2019-03-20T18:43:52.796Z,9.90
2019-03-20T18:46:19.790Z,9.87
2019-03-20T18:48:46.721Z,9.86
2019-03-20T18:51:13.742Z,9.85
2019-03-20T18:53:40.750Z,9.85
2019-03-20T18:56:07.795Z,9.77
2019-03-20T18:58:34.739Z,9.81
2019-03-20T19:01:01.734Z,9.76
2019-03-20T19:03:28.832Z,9.69
2019-03-20T19:06:02.206Z,9.75
2019-03-20T19:08:29.240Z,9.77
2019-03-20T19:10:56.792Z,9.74
2019-03-20T19:13:24.555Z,9.73
2019-03-20T19:15:51.696Z,9.65
2019-03-20T19:18:18.642Z,9.62
2019-03-20T19:20:46.075Z,9.64
2019-03-20T19:23:13.081Z,9.64
2019-03-20T19:25:40.025Z,9.66
2019-03-20T19:28:06.986Z,9.71
2019-03-20T19:30:33.913Z,9.70
2019-03-20T19:33:00.886Z,9.54
2019-03-20T19:35:27.969Z,9.56
2019-03-20T19:37:55.007Z,9.49
2019-03-20T19:40:22.442Z,9.41
2019-03-20T19:42:49.644Z,9.49
2019-03-20T19:45:16.761Z,9.51
2019-03-20T19:47:43.881Z,9.46
2019-03-20T19:50:12.320Z,9.44
2019-03-20T19:52:39.388Z,9.52
2019-03-20T19:55:06.546Z,9.46
2019-03-20T19:57:33.808Z,9.48
2019-03-20T20:00:00.808Z,9.46
2019-03-20T20:02:27.807Z,9.49
2019-03-20T20:04:56.103Z,9.52
2019-03-20T20:07:23.092Z,9.53
2019-03-20T20:09:50.092Z,9.51
2019-03-20T20:12:19.143Z,9.58
2019-03-20T20:14:46.089Z,9.58
2019-03-20T20:17:13.040Z,9.59
2019-03-20T20:19:39.969Z,9.61
2019-03-20T20:22:06.935Z,9.56
2019-03-20T20:24:33.875Z,9.57
2019-03-20T20:27:00.944Z,9.61
2019-03-20T20:29:27.859Z,9.61
2019-03-20T20:31:54.867Z,9.57
2019-03-20T20:34:21.795Z,9.57
2019-03-20T20:36:48.772Z,9.59
2019-03-20T20:39:15.691Z,9.58
2019-03-20T20:41:42.637Z,9.63
2019-03-20T20:44:09.623Z,9.67
2019-03-20T20:46:36.575Z,9.65
2019-03-20T20:49:03.699Z,9.59
2019-03-20T20:51:30.741Z,9.61
2019-03-20T20:53:57.719Z,9.58
2019-03-20T20:56:24.682Z,9.62
2019-03-20T20:58:51.643Z,9.64
2019-03-20T21:01:18.586Z,9.61
2019-03-20T21:03:45.712Z,9.59
2019-03-20T21:06:12.652Z,9.64
2019-03-20T21:08:39.775Z,9.61
2019-03-20T21:11:06.721Z,9.67
2019-03-20T21:13:33.834Z,9.60
2019-03-20T21:16:02.168Z,9.59
2019-03-20T21:19:22.055Z,9.63
2019-03-20T21:22:27.293Z,9.65
2019-03-20T21:24:55.390Z,9.65
2019-03-20T21:28:01.825Z,9.63
2019-03-20T21:30:54.609Z,9.63
2019-03-20T21:33:38.933Z,9.66
2019-03-20T21:37:03.151Z,9.64
2019-03-20T21:39:30.813Z,9.62
2019-03-20T21:42:38.867Z,9.64
2019-03-20T21:45:54.904Z,9.58
2019-03-20T21:48:21.986Z,9.61
2019-03-20T21:51:11.772Z,9.63
2019-03-20T21:54:11.471Z,9.59
2019-03-20T21:56:42.441Z,9.59
2019-03-20T21:59:39.486Z,9.64
2019-03-20T22:02:41.571Z,9.65
2019-03-20T22:05:23.025Z,9.65
2019-03-20T22:07:45.785Z,9.70
2019-03-20T22:10:49.817Z,9.62
2019-03-20T22:13:42.591Z,9.61
2019-03-20T22:16:50.408Z,9.52
2019-03-20T22:19:44.587Z,9.54
2019-03-20T22:23:08.535Z,9.59
2019-03-20T22:26:23.302Z,9.55
2019-03-20T22:29:21.640Z,9.60
2019-03-20T22:32:05.943Z,9.63
2019-03-20T22:34:42.346Z,9.61
2019-03-20T22:37:10.002Z,9.51
2019-03-20T22:40:34.157Z,9.55
2019-03-20T22:43:17.144Z,9.51
2019-03-20T22:46:24.843Z,9.51
2019-03-20T22:49:57.896Z,9.51
2019-03-20T22:53:21.899Z,9.51
2019-03-20T22:56:26.764Z,9.51
2019-03-20T22:58:54.262Z,9.47
2019-03-20T23:01:30.128Z,9.50
2019-03-20T23:04:08.672Z,9.46
2019-03-20T23:06:36.180Z,9.46
2019-03-20T23:09:06.468Z,9.50
2019-03-20T23:11:33.944Z,9.49
2019-03-20T23:14:01.439Z,9.54
2019-03-20T23:16:28.946Z,9.52
2019-03-20T23:18:56.468Z,9.54
2019-03-20T23:21:44.162Z,9.60
2019-03-20T23:24:11.675Z,9.53
2019-03-20T23:26:39.129Z,9.50
2019-03-20T23:29:06.637Z,9.44
2019-03-20T23:31:34.109Z,9.42
2019-03-20T23:34:01.628Z,9.43
2019-03-20T23:36:29.198Z,9.55
2019-03-20T23:38:56.690Z,9.52
2019-03-20T23:41:24.139Z,9.52
2019-03-20T23:43:53.265Z,9.46
2019-03-20T23:46:21.005Z,9.37
2019-03-20T23:48:55.002Z,9.37
2019-03-20T23:51:23.427Z,9.42
2019-03-20T23:53:52.732Z,9.45
2019-03-20T23:56:20.252Z,9.49
2019-03-20T23:58:47.745Z,9.43
